Terminal Aerodrome Forecast
Issued by NWS

Current Version | Previous Version | Text Only | Print | Product List | Glossary Off
Versions: 1 2 3 4 5 6 7 8 9 10 11 12 13 14 15 16 17 18 19 20 21

000
FTUS41 KRNK 010345 AAB
TAFLWB
TAF AMD
KLWB 010345Z 0104/0124 00000KT P6SM -RA BKN015 OVC060
      TEMPO 0104/0107 3SM -RA BR OVC007
     FM010700 15006KT 4SM -RA BR OVC005 WS020/18035KT
     FM011200 19004KT 5SM -RA BR OVC015
     FM011600 25009KT P6SM -SHRA BKN025 OVC060
     FM011900 25009KT P6SM SCT025 BKN040=

USA.gov is the U.S. government's official web portal to all federal, state and local government web resources and services.